Airfield :











YOU CAN JOIN US ON...

 
LOGIN :

Register | Disclaimer

   EN    FR    IT 

 









Legend :    VFR   Marginal VFR   IFR   Intensive IFR   Very Intensive IFR
Visi :
Ceiling :
>= 8 km
>= 3000ft
5 to 8 km
1000 to 3000 ft
1500m to 5 km
500 to 1000 ft
800 to 1500m
200 to 500 ft
< 800m
< 200 ft
Symbols :   Thunderstorms  Fog  Heavy snow  Heavy precipitations  Wind > 20 kt






- Airport Elevation : 981 ft
- IATA code : TYS


KTYS - Mc Ghee Tyson

CURRENT METAR :
  • 240453Z 22008KT 10SM SCT130 14/05 A3003 RMK AO2 SLP162 T01390050 402330033

EXPIRED METARs :
  • 240353Z 22007KT 10SM FEW130 BKN250 15/04 A3003 RMK AO2 SLP163 T01500044
  • 240253Z 22008KT 10SM FEW130 BKN250 15/04 A3004 RMK AO2 SLP168 T01500044 51008
  • 240153Z 21010KT 10SM FEW130 BKN250 16/04 A3004 RMK AO2 SLP168 T01610039
  • 240053Z 23010KT 10SM FEW130 OVC250 19/03 A3003 RMK AO2 SLP165 T01890028

TAF KTYS
Valid from the 24 at 00:00 until the 25 at 00:00 UTC


232320Z 2400/2424 23010KT P6SM SCT150
FM241100 23007KT P6SM SCT030 BKN035
PROB30 2411/2415 -SHRA BKN030
FM241600 30008KT P6SM SCT050
KZTL FIR / North America



MET'MAP, your aeronautical weather chart ! - Copyright ORBIFLY December 2007 - Disclaimer

ORBIFLY MET'MAP TEAM :

Programming & Development : Alexandra Zaïnal
Original concept : Baudouin d'Aumeries
Technical & hardware support : Manuel Goepfert
Assistance : Marc-Olivier Méhu




SOURCES & CREDITS :

   NOAA       Earth
Advisory